Flight Track Log - Related Links

Times and Time Zones

All times are in EDT time to prevent confusion due to time zone crossing. See the EJA829P flight status page for this flight to view local times or setup timezone preferences in your user account.

Time Position Orientation Groundspeed Altitude Reporting Facility
EDT Latitude Longitude Course Direction KTS MPH feet Rate Location/Type
Thu 12:51:26 PM 38.9833 -77.4333 345° North 206 237 3,100  Level Potomac TRACON
Thu 12:52:26 PM 39.0333 -77.4500 345° North 225 259 5,600 2,231 Climbing Potomac TRACON
Thu 12:53:27 PM 39.1000 -77.4500 360° North 221 254 7,600 1,370 Climbing Potomac TRACON
Thu 12:54:33 PM 39.1833 -77.4500 360° North 239 275 8,500 1,215 Climbing Potomac TRACON
Thu 12:56:10 PM 39.2783 -77.4469 North 267 307 10,900 1,714 Climbing Washington Center
Thu 12:57:07 PM 39.3617 -77.4492 359° North 279 321 12,900 2,058 Climbing Washington Center
Thu 12:59:02 PM 39.5425 -77.4533 359° North 320 368 16,800 2,023 Climbing New York Center
Thu 01:00:02 PM 39.6217 -77.4556 359° North 326 375 18,800 2,050 Climbing New York Center
Thu 01:01:02 PM 39.7217 -77.4569 359° North 326 375 20,900 2,100 Climbing New York Center
Thu 01:02:02 PM 39.8197 -77.4556 North 331 381 23,000 2,050 Climbing New York Center
Thu 01:03:02 PM 39.9189 -77.4758 351° North 342 394 25,000 2,000 Climbing New York Center
Thu 01:04:02 PM 40.0189 -77.5125 344° North 355 409 27,000 1,750 Climbing New York Center
Thu 01:05:02 PM 40.1006 -77.5419 345° North 367 422 28,500 1,500 Climbing New York Center
Thu 01:06:02 PM 40.2089 -77.5825 344° North 367 422 30,000 750 Climbing New York Center
Thu 01:07:02 PM 40.3169 -77.6231 344° North 386 444 30,000  Level New York Center
Thu 01:08:02 PM 40.4253 -77.6611 345° North 398 458 30,000  Level New York Center
Thu 01:09:02 PM 40.5311 -77.7017 344° North 398 458 30,000  Level New York Center
Thu 01:10:02 PM 40.6414 -77.7431 344° North 398 458 30,000  Level New York Center
Thu 01:11:02 PM 40.7472 -77.7839 344° North 398 458 30,000  Level New York Center
Thu 01:12:02 PM 40.8572 -77.8281 343° North 398 458 30,000  Level New York Center
Thu 01:13:02 PM 40.9633 -77.8694 344° North 398 458 30,000  Level New York Center
Thu 01:14:02 PM 41.0692 -77.9081 345° North 393 452 30,000  Level New York Center
Thu 01:16:23 PM 41.3189 -78.0044 344° North 404 465 30,000  Level Cleveland Center
Thu 01:17:25 PM 41.4239 -78.0442 344° North 402 463 30,000  Level Cleveland Center
Thu 01:18:27 PM 41.5486 -78.0931 344° North 397 457 30,000  Level Cleveland Center
Thu 01:19:29 PM 41.6519 -78.1336 344° North 395 455 30,000  Level Cleveland Center
Thu 01:20:31 PM 41.7464 -78.1903 336° Northwest 383 441 30,000  Level Cleveland Center
Thu 01:21:33 PM 41.7864 -78.3044 295° West 353 406 30,000  Level Cleveland Center
Thu 01:22:35 PM 41.8033 -78.4272 281° West 343 395 30,000  Level Cleveland Center
Thu 01:23:37 PM 41.8619 -78.5633 300° West 360 414 30,000  Level Cleveland Center
Thu 01:24:39 PM 41.9547 -78.6281 333° Northwest 381 438 30,000  Level Cleveland Center
Thu 01:25:41 PM 42.0658 -78.6347 357° North 401 461 30,000  Level Cleveland Center
Thu 01:26:43 PM 42.1808 -78.6364 359° North 404 465 30,000  Level Cleveland Center
Thu 01:27:45 PM 42.2950 -78.6381 359° North 408 470 30,000 -242 Level Cleveland Center
Thu 01:28:47 PM 42.4083 -78.6406 359° North 407 468 29,500 -1,113 Descending Cleveland Center
Thu 01:29:49 PM 42.5475 -78.6422 359° North 411 473 27,700 -1,839 Descending Cleveland Center
Thu 01:30:51 PM 42.6592 -78.6444 359° North 402 463 25,700 -1,935 Descending Cleveland Center
Thu 01:31:53 PM 42.7483 -78.7103 332° Northwest 370 426 23,700 -1,935 Descending Cleveland Center
Thu 01:32:55 PM 42.8244 -78.7986 320° Northwest 359 413 21,700 -1,984 Descending Cleveland Center
Thu 01:33:57 PM 42.8975 -78.8828 320° Northwest 346 398 19,600 -2,075 Descending Cleveland Center
Thu 01:34:42 PM 42.9500 -78.9333 325° Northwest 330 380 18,000 -2,229 Descending Toronto Center
Thu 01:35:42 PM 43.0167 -79.0167 318° Northwest 320 368 15,700 -2,100 Descending Toronto Center
Thu 01:36:42 PM 43.0833 -79.0833 324° Northwest 310 357 13,800 -1,850 Descending Toronto Center
Thu 01:37:42 PM 43.1500 -79.1500 324° Northwest 300 345 12,000 -900 Descending Toronto Center
Thu 01:38:42 PM 43.2000 -79.2167 316° Northwest 280 322 12,000  Level Toronto Center
Thu 01:39:42 PM 43.2667 -79.2833 324° Northwest 270 311 12,000 -100 Level Toronto Center
Thu 01:40:42 PM 43.3167 -79.3500 316° Northwest 270 311 11,800 -1,250 Descending Toronto Center
Thu 01:41:42 PM 43.3833 -79.4000 331° Northwest 270 311 9,500 -1,900 Descending Toronto Center
Thu 01:42:42 PM 43.4500 -79.4333 340° North 260 299 8,000 -750 Descending Toronto Center
Thu 01:43:42 PM 43.5167 -79.4667 340° North 250 288 8,000 -250 Level Toronto Center
Thu 01:44:42 PM 43.5667 -79.5167 324° Northwest 230 265 7,500 -850 Descending Toronto Center
Thu 01:45:42 PM 43.6333 -79.4667 28° Northeast 250 288 6,300 -1,350 Descending Toronto Center
Thu 01:46:42 PM 43.6667 -79.4000 55° Northeast 250 288 4,800 -1,100 Descending Toronto Center
Thu 01:47:42 PM 43.7167 -79.3333 44° Northeast 230 265 4,100 -900 Descending Toronto Center
Thu 01:48:42 PM 43.7667 -79.3167 14° North 210 242 3,000 -500 Descending Toronto Center
Thu 01:49:42 PM 43.8000 -79.3500 324° Northwest 160 184 3,100 50 Climbing Toronto Center
Thu 01:50:42 PM 43.7833 -79.4000 245° Southwest 150 173 3,100  Level Toronto Center
Thu 01:51:42 PM 43.7500 -79.4500 227° Southwest 150 173 3,100 -300 Level Toronto Center
Thu 01:52:42 PM 43.7333 -79.5000 245° Southwest 150 173 2,500 -750 Descending Toronto Center
Thu 01:53:42 PM 43.7000 -79.5333 216° Southwest 140 161 1,600 -800 Descending Toronto Center
Thu 01:54:42 PM 43.6833 -79.5667 235° Southwest 110 127 900 -700 Descending Toronto Center

Login

Don't have an account? Register now (free) for customized features, flight alerts, and more!